Time;durP1;ratioP1;P1;durP2;ratioP2;P2;SDS_P1;SDS_P2;PMS_P1;PMS_P2;Temp;Humidity;BMP_temperature;BMP_pressure;BME280_temperature;BME280_humidity;BME280_pressure;Samples;Min_cycle;Max_cycle;Signal;HPM_P1;HPM_P2
2021/04/21 00:04:25;;;;;;;24.53;14.50;;;;;;;;;;10488143;28;20226;-71
2021/04/21 00:09:27;;;;;;;24.77;13.60;;;;;;;;;;10526355;28;20442;-71
2021/04/21 00:14:29;;;;;;;22.00;13.90;;;;;;;;;;10489175;28;20243;-69
2021/04/21 00:19:34;;;;;;;23.97;12.60;;;;;;;;;;10482555;28;20232;-69
2021/04/21 00:24:36;;;;;;;21.57;11.77;;;;;;;;;;10493281;28;20263;-69
2021/04/21 00:29:40;;;;;;;21.37;12.67;;;;;;;;;;10489225;28;20327;-69
2021/04/21 00:34:43;;;;;;;22.47;13.37;;;;;;;;;;10488271;28;20193;-70
2021/04/21 00:39:46;;;;;;;23.73;13.13;;;;;;;;;;10488167;28;20232;-70
2021/04/21 00:44:50;;;;;;;24.13;13.83;;;;;;;;;;10489160;28;20212;-70
2021/04/21 00:49:57;;;;;;;24.23;13.93;;;;;;;;;;10472053;28;20304;-69
2021/04/21 00:55:00;;;;;;;22.80;12.67;;;;;;;;;;10491404;28;20242;-69
2021/04/21 01:00:07;;;;;;;21.60;11.67;;;;;;;;;;10486951;28;20735;-70
2021/04/21 01:05:11;;;;;;;18.93;11.10;;;;;;;;;;10482361;28;20296;-68
2021/04/21 01:10:14;;;;;;;19.37;10.80;;;;;;;;;;10482057;28;20217;-68
2021/04/21 01:15:17;;;;;;;20.03;10.97;;;;;;;;;;10488723;28;20607;-68
2021/04/21 01:20:26;;;;;;;18.60;10.37;;;;;;;;;;10487204;28;20255;-69
2021/04/21 01:25:34;;;;;;;18.23;10.10;;;;;;;;;;10485943;28;20216;-69
2021/04/21 01:30:38;;;;;;;17.93;9.63;;;;;;;;;;10485147;28;20216;-66
2021/04/21 01:35:42;;;;;;;15.03;8.63;;;;;;;;;;10484665;28;20717;-70
2021/04/21 01:40:45;;;;;;;14.77;8.23;;;;;;;;;;10480200;28;20243;-69
2021/04/21 01:45:48;;;;;;;17.17;10.27;;;;;;;;;;10484158;28;20308;-70
2021/04/21 01:50:51;;;;;;;17.53;9.67;;;;;;;;;;10485489;28;20267;-70
2021/04/21 01:55:55;;;;;;;14.57;8.77;;;;;;;;;;10485140;28;20690;-69
2021/04/21 02:01:00;;;;;;;15.37;8.70;;;;;;;;;;10486360;28;20308;-70
2021/04/21 02:06:15;;;;;;;18.30;9.57;;;;;;;;;;10484549;28;20211;-69
2021/04/21 02:11:18;;;;;;;15.33;8.73;;;;;;;;;;10489014;28;20266;-68
2021/04/21 02:16:23;;;;;;;16.07;9.17;;;;;;;;;;10481969;28;20181;-70
2021/04/21 02:21:26;;;;;;;15.10;9.23;;;;;;;;;;10486493;28;20239;-71
2021/04/21 02:26:34;;;;;;;16.10;9.70;;;;;;;;;;10487267;28;20753;-69
2021/04/21 02:31:43;;;;;;;17.73;9.83;;;;;;;;;;10488356;28;20258;-70
2021/04/21 02:36:47;;;;;;;16.03;9.57;;;;;;;;;;10486055;28;20566;-68
2021/04/21 02:41:59;;;;;;;18.33;10.87;;;;;;;;;;10482797;28;20235;-69
2021/04/21 02:47:03;;;;;;;16.80;9.50;;;;;;;;;;10487018;28;20204;-70
2021/04/21 02:52:06;;;;;;;15.87;8.90;;;;;;;;;;10481009;28;20291;-69
2021/04/21 02:57:11;;;;;;;15.33;8.63;;;;;;;;;;10480584;28;20181;-70
2021/04/21 03:02:17;;;;;;;14.53;8.07;;;;;;;;;;10483383;28;20204;-72
2021/04/21 03:07:22;;;;;;;15.10;8.60;;;;;;;;;;10482556;28;20548;-68
2021/04/21 03:12:25;;;;;;;15.63;8.53;;;;;;;;;;10486373;28;20671;-69
2021/04/21 03:17:28;;;;;;;14.47;8.07;;;;;;;;;;10517952;28;20640;-69
2021/04/21 03:22:31;;;;;;;13.97;7.60;;;;;;;;;;10487102;28;20726;-70
2021/04/21 03:27:33;;;;;;;13.50;7.93;;;;;;;;;;10476999;28;20261;-70
2021/04/21 03:32:37;;;;;;;17.53;9.90;;;;;;;;;;10487844;28;20258;-70
2021/04/21 03:37:45;;;;;;;14.60;8.93;;;;;;;;;;10483141;28;21123;-69
2021/04/21 03:42:47;;;;;;;14.57;7.67;;;;;;;;;;10479490;28;20200;-69
2021/04/21 03:47:50;;;;;;;14.13;7.90;;;;;;;;;;10486339;28;20212;-69
2021/04/21 03:52:53;;;;;;;13.77;7.50;;;;;;;;;;10481836;28;20212;-69
2021/04/21 03:57:57;;;;;;;13.37;7.43;;;;;;;;;;10523770;28;20188;-70
2021/04/21 04:03:01;;;;;;;13.33;6.70;;;;;;;;;;10488818;28;20273;-69
2021/04/21 04:08:07;;;;;;;12.27;6.10;;;;;;;;;;10491040;28;20293;-68
2021/04/21 04:13:11;;;;;;;11.23;6.17;;;;;;;;;;10490743;28;20250;-69
2021/04/21 04:18:14;;;;;;;11.03;5.70;;;;;;;;;;10489584;28;20291;-69
2021/04/21 04:23:18;;;;;;;11.50;5.90;;;;;;;;;;10492065;28;20245;-69
2021/04/21 04:28:19;;;;;;;12.87;7.00;;;;;;;;;;10485566;28;20579;-69
2021/04/21 04:33:24;;;;;;;12.03;6.73;;;;;;;;;;10488701;28;20216;-70
2021/04/21 04:38:27;;;;;;;12.07;7.37;;;;;;;;;;10488624;28;20211;-69
2021/04/21 04:43:29;;;;;;;13.23;7.50;;;;;;;;;;10490095;28;20610;-69
2021/04/21 04:48:36;;;;;;;15.63;8.20;;;;;;;;;;10485756;28;20702;-68
2021/04/21 04:53:39;;;;;;;13.07;7.47;;;;;;;;;;10483358;28;20224;-68
2021/04/21 04:58:42;;;;;;;13.20;7.73;;;;;;;;;;10488451;28;20192;-69
2021/04/21 05:03:51;;;;;;;13.97;7.40;;;;;;;;;;10484888;28;20188;-69
2021/04/21 05:08:53;;;;;;;13.37;7.17;;;;;;;;;;10487460;28;20212;-71
2021/04/21 05:13:57;;;;;;;14.70;6.73;;;;;;;;;;10484971;28;20284;-69
2021/04/21 05:19:09;;;;;;;13.87;6.83;;;;;;;;;;10492002;28;20212;-70
2021/04/21 05:24:26;;;;;;;14.20;7.23;;;;;;;;;;10487763;28;20303;-71
2021/04/21 05:29:43;;;;;;;10.83;6.20;;;;;;;;;;10483211;28;20289;-71
2021/04/21 05:35:03;;;;;;;11.07;5.90;;;;;;;;;;10482362;28;20200;-70
2021/04/21 05:40:27;;;;;;;13.90;7.90;;;;;;;;;;10487607;28;20255;-73
2021/04/21 05:45:53;;;;;;;12.73;7.20;;;;;;;;;;10475098;28;20218;-70
2021/04/21 05:51:28;;;;;;;12.60;7.00;;;;;;;;;;10474543;28;20212;-70
2021/04/21 05:56:44;;;;;;;12.60;6.20;;;;;;;;;;10393416;28;20278;-68
2021/04/21 06:01:47;;;;;;;10.80;6.43;;;;;;;;;;10463381;28;20349;-69
2021/04/21 06:06:49;;;;;;;11.23;6.60;;;;;;;;;;10484819;28;20671;-71
2021/04/21 06:12:04;;;;;;;10.40;6.47;;;;;;;;;;10481327;28;20220;-70
2021/04/21 06:17:06;;;;;;;12.20;6.63;;;;;;;;;;10504885;28;20189;-70
2021/04/21 06:22:09;;;;;;;13.80;7.20;;;;;;;;;;10479988;28;20626;-69
2021/04/21 06:27:12;;;;;;;12.20;7.20;;;;;;;;;;10483675;28;20215;-70
2021/04/21 06:32:15;;;;;;;11.03;6.53;;;;;;;;;;10481242;28;20266;-71
2021/04/21 06:37:17;;;;;;;14.17;6.50;;;;;;;;;;10482016;28;20186;-71
2021/04/21 06:42:19;;;;;;;12.13;6.67;;;;;;;;;;10483432;28;20220;-71
2021/04/21 06:47:22;;;;;;;12.97;6.97;;;;;;;;;;10478073;28;20243;-69
2021/04/21 06:52:23;;;;;;;15.57;6.30;;;;;;;;;;10475427;28;20220;-69
2021/04/21 06:57:28;;;;;;;11.87;6.20;;;;;;;;;;10471931;28;20193;-69
2021/04/21 07:02:40;;;;;;;9.73;5.37;;;;;;;;;;10473329;28;20240;-67
2021/04/21 07:07:42;;;;;;;12.00;6.07;;;;;;;;;;10481943;28;20301;-71
2021/04/21 07:12:45;;;;;;;11.60;5.90;;;;;;;;;;10482738;28;20208;-71
2021/04/21 07:17:48;;;;;;;11.27;5.30;;;;;;;;;;10477930;28;20196;-71
2021/04/21 07:22:50;;;;;;;10.27;5.70;;;;;;;;;;10480916;28;20358;-72
2021/04/21 07:27:53;;;;;;;8.90;5.73;;;;;;;;;;10483632;28;20299;-70
2021/04/21 07:32:56;;;;;;;9.25;5.53;;;;;;;;;;10487146;28;20706;-69
2021/04/21 07:37:58;;;;;;;9.38;5.80;;;;;;;;;;10488442;28;20238;-69
2021/04/21 07:43:09;;;;;;;9.75;5.72;;;;;;;;;;10481133;28;20700;-69
2021/04/21 07:48:29;;;;;;;9.95;6.03;;;;;;;;;;10484003;28;20273;-70
2021/04/21 07:53:32;;;;;;;7.45;5.30;;;;;;;;;;10488110;28;20664;-70
2021/04/21 07:58:34;;;;;;;8.43;5.38;;;;;;;;;;10484308;28;20197;-70
2021/04/21 08:03:36;;;;;;;10.05;5.95;;;;;;;;;;10484361;28;20631;-72
2021/04/21 08:08:39;;;;;;;10.80;6.30;;;;;;;;;;10488909;28;20212;-69
2021/04/21 08:13:43;;;;;;;11.52;7.82;;;;;;;;;;10478397;28;20639;-71
2021/04/21 08:18:45;;;;;;;9.23;7.25;;;;;;;;;;10483379;28;20297;-70
2021/04/21 08:23:58;;;;;;;11.07;7.50;;;;;;;;;;10481814;28;20192;-71
2021/04/21 08:29:00;;;;;;;11.02;7.10;;;;;;;;;;10481190;28;20219;-68
2021/04/21 08:34:02;;;;;;;11.82;7.95;;;;;;;;;;10473045;28;20271;-69
2021/04/21 08:39:05;;;;;;;10.38;7.95;;;;;;;;;;10478314;28;20235;-69
2021/04/21 08:44:07;;;;;;;12.52;8.60;;;;;;;;;;10474501;28;20200;-72
2021/04/21 08:49:09;;;;;;;11.32;8.32;;;;;;;;;;10482336;28;20228;-71
2021/04/21 08:54:12;;;;;;;10.25;8.45;;;;;;;;;;10476613;28;20683;-71
2021/04/21 08:59:15;;;;;;;11.82;8.52;;;;;;;;;;10472844;28;20728;-70
2021/04/21 09:04:17;;;;;;;9.63;8.30;;;;;;;;;;10478613;28;20588;-70
2021/04/21 09:09:23;;;;;;;10.27;8.32;;;;;;;;;;10485008;28;20748;-71
2021/04/21 09:14:28;;;;;;;9.52;8.27;;;;;;;;;;10517814;28;20246;-72
2021/04/21 09:19:30;;;;;;;11.25;8.00;;;;;;;;;;10467809;28;20216;-70
2021/04/21 09:24:36;;;;;;;11.90;8.75;;;;;;;;;;10481060;28;20200;-71
2021/04/21 09:29:38;;;;;;;10.52;8.38;;;;;;;;;;10479469;28;20705;-70
2021/04/21 09:34:53;;;;;;;11.75;8.30;;;;;;;;;;10487281;28;20192;-71
2021/04/21 09:39:56;;;;;;;11.93;8.80;;;;;;;;;;10485537;28;20218;-70
2021/04/21 09:45:01;;;;;;;10.93;8.38;;;;;;;;;;10483506;28;20208;-71
2021/04/21 09:50:03;;;;;;;12.48;8.95;;;;;;;;;;10479400;28;20652;-70
2021/04/21 09:55:14;;;;;;;10.27;8.90;;;;;;;;;;10482529;28;20574;-72
2021/04/21 10:00:16;;;;;;;10.90;9.00;;;;;;;;;;10479487;28;20297;-70
2021/04/21 10:05:25;;;;;;;12.40;9.48;;;;;;;;;;10476532;28;20604;-71
2021/04/21 10:10:28;;;;;;;10.93;8.63;;;;;;;;;;10483153;28;20223;-71
2021/04/21 10:15:30;;;;;;;12.18;8.35;;;;;;;;;;10477562;28;20267;-70
2021/04/21 10:20:32;;;;;;;16.65;9.27;;;;;;;;;;10481451;28;20217;-71
2021/04/21 10:25:35;;;;;;;15.77;9.15;;;;;;;;;;10475936;28;20196;-71
2021/04/21 10:30:37;;;;;;;13.02;8.60;;;;;;;;;;10481691;28;20341;-70
2021/04/21 10:35:39;;;;;;;11.10;8.13;;;;;;;;;;10480832;28;20219;-69
2021/04/21 10:40:41;;;;;;;10.43;8.07;;;;;;;;;;10474702;28;20240;-68
2021/04/21 10:45:47;;;;;;;10.48;7.97;;;;;;;;;;10477495;28;20575;-71
2021/04/21 10:50:49;;;;;;;12.88;8.88;;;;;;;;;;10476579;28;20701;-72
2021/04/21 10:55:51;;;;;;;11.02;8.85;;;;;;;;;;10483714;28;20175;-70
2021/04/21 11:00:53;;;;;;;11.93;8.98;;;;;;;;;;10486268;28;20296;-70
2021/04/21 11:05:59;;;;;;;10.63;8.95;;;;;;;;;;10485870;28;20208;-72
2021/04/21 11:11:03;;;;;;;10.70;8.77;;;;;;;;;;10491386;28;20537;-72
2021/04/21 11:16:06;;;;;;;13.15;8.95;;;;;;;;;;10497512;28;20208;-72
2021/04/21 11:21:08;;;;;;;11.25;8.00;;;;;;;;;;10527089;28;20208;-72
2021/04/21 11:26:31;;;;;;;10.27;8.13;;;;;;;;;;10487111;28;20204;-73
2021/04/21 11:31:52;;;;;;;9.38;7.72;;;;;;;;;;10519915;28;20221;-72
2021/04/21 11:36:56;;;;;;;12.05;8.52;;;;;;;;;;10486856;28;20413;-71
2021/04/21 11:42:14;;;;;;;10.25;7.88;;;;;;;;;;10491235;28;20281;-72
2021/04/21 11:47:27;;;;;;;11.10;7.72;;;;;;;;;;10480610;28;20230;-73
2021/04/21 11:52:44;;;;;;;10.70;8.55;;;;;;;;;;10489885;28;20234;-72
2021/04/21 11:57:49;;;;;;;12.18;8.95;;;;;;;;;;10484521;28;20204;-72
2021/04/21 12:02:51;;;;;;;11.98;8.20;;;;;;;;;;10490428;28;20236;-72
2021/04/21 12:07:56;;;;;;;10.98;7.78;;;;;;;;;;10483261;28;20195;-71
2021/04/21 12:13:10;;;;;;;13.07;8.57;;;;;;;;;;10483000;28;20219;-71
2021/04/21 12:18:20;;;;;;;12.32;8.27;;;;;;;;;;10485320;28;20223;-71
2021/04/21 12:23:26;;;;;;;11.18;7.45;;;;;;;;;;10487060;28;20735;-72
2021/04/21 12:28:28;;;;;;;11.40;7.97;;;;;;;;;;10485846;28;20267;-71
2021/04/21 12:33:29;;;;;;;13.32;8.57;;;;;;;;;;10488424;28;20235;-70
2021/04/21 12:38:33;;;;;;;11.70;8.45;;;;;;;;;;10485850;28;20224;-71
2021/04/21 12:43:35;;;;;;;9.80;7.50;;;;;;;;;;10485802;28;20314;-70
2021/04/21 12:48:44;;;;;;;12.05;7.97;;;;;;;;;;10490631;28;20189;-72
2021/04/21 12:53:48;;;;;;;12.77;7.30;;;;;;;;;;10477790;28;20297;-72
2021/04/21 12:58:50;;;;;;;12.40;7.45;;;;;;;;;;10483523;28;20292;-72
2021/04/21 13:03:58;;;;;;;10.70;6.68;;;;;;;;;;10481453;28;20720;-72
2021/04/21 13:09:03;;;;;;;12.63;7.40;;;;;;;;;;10490159;28;20286;-71
2021/04/21 13:14:06;;;;;;;9.57;6.07;;;;;;;;;;10482910;28;20203;-71
2021/04/21 13:19:25;;;;;;;10.05;5.53;;;;;;;;;;10479100;28;20225;-70
2021/04/21 13:24:28;;;;;;;8.80;5.43;;;;;;;;;;10509751;28;20295;-70
2021/04/21 13:29:30;;;;;;;11.85;7.35;;;;;;;;;;10483692;28;20244;-71
2021/04/21 13:34:32;;;;;;;13.20;8.88;;;;;;;;;;10487209;28;20265;-70
2021/04/21 13:39:35;;;;;;;12.60;8.35;;;;;;;;;;10480228;28;20220;-71
2021/04/21 13:44:36;;;;;;;12.85;8.98;;;;;;;;;;10472266;28;20282;-71
2021/04/21 13:49:38;;;;;;;12.07;8.35;;;;;;;;;;10461822;28;20702;-69
2021/04/21 13:54:43;;;;;;;13.80;8.83;;;;;;;;;;10464810;28;20573;-72
2021/04/21 13:59:45;;;;;;;14.57;9.50;;;;;;;;;;10459803;28;20220;-69
2021/04/21 14:04:46;;;;;;;13.27;9.20;;;;;;;;;;10479795;28;20268;-69
2021/04/21 14:09:49;;;;;;;15.17;9.27;;;;;;;;;;10478569;28;20284;-71
2021/04/21 14:14:50;;;;;;;11.43;8.23;;;;;;;;;;10459699;28;20262;-69
2021/04/21 14:19:52;;;;;;;14.60;9.27;;;;;;;;;;10463947;28;20224;-69
2021/04/21 14:25:08;;;;;;;12.65;8.63;;;;;;;;;;10475198;28;20279;-69
2021/04/21 14:30:11;;;;;;;13.93;9.20;;;;;;;;;;10490016;28;20239;-71
2021/04/21 14:35:13;;;;;;;13.07;8.60;;;;;;;;;;10478852;28;20192;-70
2021/04/21 14:40:17;;;;;;;15.23;9.80;;;;;;;;;;10478762;28;20278;-71
2021/04/21 14:45:19;;;;;;;14.43;9.07;;;;;;;;;;10479472;28;20208;-68
2021/04/21 14:50:21;;;;;;;12.07;8.27;;;;;;;;;;10517426;28;20332;-69
2021/04/21 14:55:23;;;;;;;16.00;8.30;;;;;;;;;;10477229;28;20228;-70
2021/04/21 15:00:25;;;;;;;14.47;8.73;;;;;;;;;;10478680;28;20224;-71
2021/04/21 15:05:27;;;;;;;13.53;8.57;;;;;;;;;;10473319;28;20834;-71
2021/04/21 15:10:30;;;;;;;13.10;8.73;;;;;;;;;;10478930;28;20227;-70
2021/04/21 15:15:32;;;;;;;14.63;8.40;;;;;;;;;;10483166;28;20231;-70
2021/04/21 15:20:34;;;;;;;12.33;8.37;;;;;;;;;;10484741;28;20232;-70
2021/04/21 15:25:37;;;;;;;17.10;10.77;;;;;;;;;;10471878;28;20203;-69
2021/04/21 15:30:38;;;;;;;12.97;8.10;;;;;;;;;;10484050;28;20321;-70
2021/04/21 15:35:40;;;;;;;13.93;7.97;;;;;;;;;;10483316;28;20238;-68
2021/04/21 15:40:44;;;;;;;12.57;8.43;;;;;;;;;;10481924;28;20231;-69
2021/04/21 15:45:45;;;;;;;15.00;8.37;;;;;;;;;;10476046;28;20195;-70
2021/04/21 15:50:47;;;;;;;13.90;8.43;;;;;;;;;;10479418;28;20315;-65
2021/04/21 15:55:50;;;;;;;11.43;7.80;;;;;;;;;;10493286;28;20236;-69
2021/04/21 16:00:52;;;;;;;12.37;7.67;;;;;;;;;;10487523;28;20227;-69
2021/04/21 16:05:53;;;;;;;12.67;7.47;;;;;;;;;;10488716;28;20503;-70
2021/04/21 16:10:56;;;;;;;11.67;6.93;;;;;;;;;;10485393;28;20274;-70
2021/04/21 16:15:59;;;;;;;11.37;7.23;;;;;;;;;;10501361;28;20287;-69
2021/04/21 16:21:00;;;;;;;13.30;8.03;;;;;;;;;;10504503;28;20217;-69
2021/04/21 16:26:03;;;;;;;10.00;6.30;;;;;;;;;;10540247;28;20248;-71
2021/04/21 16:31:05;;;;;;;10.90;7.10;;;;;;;;;;10530718;28;20219;-70
2021/04/21 16:36:06;;;;;;;12.10;6.67;;;;;;;;;;10532835;28;20198;-69
2021/04/21 16:41:09;;;;;;;11.03;6.60;;;;;;;;;;10516797;28;20255;-69
2021/04/21 16:46:11;;;;;;;10.37;6.53;;;;;;;;;;10497869;28;20200;-70
2021/04/21 16:51:12;;;;;;;12.83;6.90;;;;;;;;;;10506759;28;20212;-69
2021/04/21 16:56:16;;;;;;;12.27;6.97;;;;;;;;;;10505334;28;20196;-71
2021/04/21 17:01:19;;;;;;;10.87;6.10;;;;;;;;;;10505638;28;20227;-69
2021/04/21 17:06:22;;;;;;;12.00;6.90;;;;;;;;;;10503357;28;20228;-69
2021/04/21 17:11:24;;;;;;;10.50;6.43;;;;;;;;;;10496466;28;20316;-70
2021/04/21 17:16:26;;;;;;;10.70;6.23;;;;;;;;;;10478533;28;20611;-70
2021/04/21 17:21:28;;;;;;;11.33;6.40;;;;;;;;;;10488483;28;20369;-69
2021/04/21 17:26:31;;;;;;;10.77;5.83;;;;;;;;;;10490291;28;20196;-68
2021/04/21 17:31:34;;;;;;;11.70;5.57;;;;;;;;;;10489877;28;20697;-69
2021/04/21 17:36:38;;;;;;;10.37;5.93;;;;;;;;;;10492399;28;20254;-68
2021/04/21 17:41:40;;;;;;;10.80;6.00;;;;;;;;;;10476627;28;20216;-70
2021/04/21 17:46:42;;;;;;;11.47;5.77;;;;;;;;;;10489565;28;20212;-69
2021/04/21 17:51:44;;;;;;;9.73;5.47;;;;;;;;;;10499332;28;20636;-68
2021/04/21 17:56:46;;;;;;;10.97;6.20;;;;;;;;;;10502648;28;20273;-68
2021/04/21 18:01:48;;;;;;;11.10;5.63;;;;;;;;;;10490527;28;20224;-70
2021/04/21 18:06:49;;;;;;;10.20;5.20;;;;;;;;;;10488133;28;20701;-69
2021/04/21 18:11:52;;;;;;;10.50;5.80;;;;;;;;;;10492382;28;20747;-70
2021/04/21 18:16:58;;;;;;;12.57;6.00;;;;;;;;;;10487787;28;20601;-67
2021/04/21 18:22:00;;;;;;;11.47;6.03;;;;;;;;;;10483091;28;20219;-67
2021/04/21 18:27:03;;;;;;;12.33;6.20;;;;;;;;;;10492456;28;20184;-69
2021/04/21 18:32:05;;;;;;;11.70;6.03;;;;;;;;;;10485750;28;20231;-68
2021/04/21 18:37:07;;;;;;;10.33;5.60;;;;;;;;;;10482322;28;20205;-68
2021/04/21 18:42:10;;;;;;;12.00;5.70;;;;;;;;;;10485058;28;20584;-69
2021/04/21 18:47:12;;;;;;;11.27;5.47;;;;;;;;;;10488025;28;20208;-70
2021/04/21 18:52:13;;;;;;;14.30;8.73;;;;;;;;;;10491226;28;20220;-70
2021/04/21 18:57:17;;;;;;;12.73;6.20;;;;;;;;;;10492124;28;20215;-70
2021/04/21 19:02:18;;;;;;;14.50;5.83;;;;;;;;;;10494137;28;20204;-70
2021/04/21 19:07:20;;;;;;;12.13;6.50;;;;;;;;;;10492796;28;20586;-71
2021/04/21 19:12:24;;;;;;;12.93;6.33;;;;;;;;;;10492724;28;20216;-69
2021/04/21 19:17:26;;;;;;;12.87;6.37;;;;;;;;;;10497292;28;20629;-70
2021/04/21 19:22:27;;;;;;;10.37;5.80;;;;;;;;;;10491848;28;20688;-70
2021/04/21 19:27:30;;;;;;;11.07;5.70;;;;;;;;;;10498443;28;20185;-71
2021/04/21 19:32:32;;;;;;;12.17;6.27;;;;;;;;;;10494352;28;20227;-70
2021/04/21 19:37:34;;;;;;;11.53;6.53;;;;;;;;;;10499924;28;20560;-69
2021/04/21 19:42:38;;;;;;;10.43;6.17;;;;;;;;;;10492511;28;20290;-69
2021/04/21 19:47:40;;;;;;;13.03;7.17;;;;;;;;;;10496077;28;20598;-70
2021/04/21 19:52:41;;;;;;;12.23;7.07;;;;;;;;;;10497967;28;20220;-70
2021/04/21 19:57:44;;;;;;;14.47;7.13;;;;;;;;;;10496327;28;20210;-70
2021/04/21 20:02:46;;;;;;;12.13;6.70;;;;;;;;;;10497662;28;20204;-69
2021/04/21 20:07:48;;;;;;;11.63;7.10;;;;;;;;;;10492749;28;20196;-70
2021/04/21 20:12:51;;;;;;;13.27;7.63;;;;;;;;;;10494137;28;20220;-69
2021/04/21 20:17:54;;;;;;;12.37;7.63;;;;;;;;;;10496466;28;20211;-70
2021/04/21 20:22:55;;;;;;;14.47;7.87;;;;;;;;;;10494201;28;20246;-71
2021/04/21 20:27:58;;;;;;;19.73;13.37;;;;;;;;;;10488829;28;20192;-70
2021/04/21 20:32:59;;;;;;;14.20;8.00;;;;;;;;;;10492797;28;20208;-70
2021/04/21 20:38:01;;;;;;;13.40;7.73;;;;;;;;;;10476391;28;20223;-70
2021/04/21 20:43:04;;;;;;;12.73;7.80;;;;;;;;;;10477993;28;20216;-70
2021/04/21 20:48:06;;;;;;;13.13;8.10;;;;;;;;;;10492980;28;20208;-70
2021/04/21 20:53:08;;;;;;;13.80;7.87;;;;;;;;;;10500787;28;20261;-70
2021/04/21 20:58:10;;;;;;;14.87;8.20;;;;;;;;;;10497469;28;20223;-71
2021/04/21 21:03:12;;;;;;;16.90;8.97;;;;;;;;;;10499898;28;20212;-73
2021/04/21 21:08:13;;;;;;;14.87;8.60;;;;;;;;;;10496331;28;20196;-72
2021/04/21 21:13:16;;;;;;;14.77;8.13;;;;;;;;;;10498969;28;20603;-71
2021/04/21 21:18:17;;;;;;;16.33;8.60;;;;;;;;;;10491870;28;20293;-69
2021/04/21 21:23:19;;;;;;;15.30;8.07;;;;;;;;;;10491035;28;20215;-69
2021/04/21 21:28:22;;;;;;;15.53;8.40;;;;;;;;;;10483457;28;20191;-69
2021/04/21 21:33:23;;;;;;;13.10;8.17;;;;;;;;;;10491817;28;20698;-70
2021/04/21 21:38:25;;;;;;;15.40;8.07;;;;;;;;;;10479251;28;20212;-69
2021/04/21 21:43:28;;;;;;;15.17;8.60;;;;;;;;;;10489178;28;20220;-70
2021/04/21 21:48:29;;;;;;;15.20;9.17;;;;;;;;;;10483737;28;20192;-69
2021/04/21 21:53:31;;;;;;;15.00;8.97;;;;;;;;;;10486058;28;20228;-66
2021/04/21 21:58:34;;;;;;;15.50;9.43;;;;;;;;;;10488507;28;20257;-69
2021/04/21 22:03:36;;;;;;;15.77;9.23;;;;;;;;;;10487798;28;20591;-71
2021/04/21 22:08:38;;;;;;;15.13;9.80;;;;;;;;;;10486756;28;20563;-70
2021/04/21 22:13:41;;;;;;;16.80;9.53;;;;;;;;;;10485302;28;20506;-69
2021/04/21 22:18:43;;;;;;;17.60;9.53;;;;;;;;;;10478434;28;20197;-67
2021/04/21 22:23:46;;;;;;;16.07;9.43;;;;;;;;;;10488870;28;20216;-69
2021/04/21 22:28:48;;;;;;;15.33;8.90;;;;;;;;;;10483888;28;20212;-66
2021/04/21 22:33:50;;;;;;;14.27;8.73;;;;;;;;;;10487333;28;20303;-69
2021/04/21 22:38:51;;;;;;;13.70;8.10;;;;;;;;;;10478083;28;20203;-69
2021/04/21 22:43:54;;;;;;;13.07;7.47;;;;;;;;;;10477476;28;20212;-70
2021/04/21 22:48:55;;;;;;;13.57;7.93;;;;;;;;;;10479320;28;20203;-70
2021/04/21 22:53:57;;;;;;;15.40;8.97;;;;;;;;;;10484697;28;20194;-70
2021/04/21 22:58:59;;;;;;;14.60;9.13;;;;;;;;;;10485489;28;20300;-70
2021/04/21 23:04:01;;;;;;;16.53;9.40;;;;;;;;;;10485806;28;20196;-70
2021/04/21 23:09:04;;;;;;;15.27;8.43;;;;;;;;;;10486807;28;20192;-70
2021/04/21 23:14:07;;;;;;;16.23;9.33;;;;;;;;;;10481260;28;20264;-69
2021/04/21 23:19:08;;;;;;;14.93;8.57;;;;;;;;;;10477887;28;20691;-70
2021/04/21 23:24:10;;;;;;;16.30;9.60;;;;;;;;;;10487505;28;20230;-70
2021/04/21 23:29:13;;;;;;;17.27;9.03;;;;;;;;;;10479947;28;20204;-70
2021/04/21 23:34:14;;;;;;;14.60;8.53;;;;;;;;;;10485234;28;20196;-70
2021/04/21 23:39:16;;;;;;;15.80;8.90;;;;;;;;;;10478085;28;20297;-69
2021/04/21 23:44:18;;;;;;;18.70;9.53;;;;;;;;;;10484963;28;20663;-70
2021/04/21 23:49:20;;;;;;;14.90;8.90;;;;;;;;;;10482143;28;20287;-70
2021/04/21 23:54:21;;;;;;;16.30;9.07;;;;;;;;;;10483117;28;20258;-70
2021/04/21 23:59:24;;;;;;;15.60;8.97;;;;;;;;;;10485457;28;20269;-69
